Time;durP1;ratioP1;P1;durP2;ratioP2;P2;SDS_P1;SDS_P2;PMS_P1;PMS_P2;Temp;Humidity;BMP_temperature;BMP_pressure;BME280_temperature;BME280_humidity;BME280_pressure;Samples;Min_cycle;Max_cycle;Signal;HPM_P1;HPM_P2
2023/08/06 00:00:22;;;;;;;;;;;;;;;20.43;100.00;98643.69;5032050;28;20013;-76
2023/08/06 00:02:47;;;;;;;;;;;;;;;20.51;100.00;98639.84;5006772;28;20286;-76
2023/08/06 00:05:13;;;;;;;;;;;;;;;20.54;100.00;98637.56;5031281;28;19931;-77
2023/08/06 00:07:38;;;;;;;;;;;;;;;20.66;100.00;98635.72;5031764;28;19947;-76
2023/08/06 00:10:04;;;;;;;;;;;;;;;20.67;100.00;98637.34;5031791;28;19928;-77
2023/08/06 00:12:29;;;;;;;;;;;;;;;20.63;100.00;98648.75;5030925;28;20289;-76
2023/08/06 00:14:54;;;;;;;;;;;;;;;20.63;100.00;98649.56;5032114;28;20431;-77
2023/08/06 00:17:20;;;;;;;;;;;;;;;20.60;100.00;98649.22;5031841;28;20381;-77
2023/08/06 00:19:45;;;;;;;;;;;;;;;20.37;100.00;98655.31;5031996;28;19921;-75
2023/08/06 00:22:10;;;;;;;;;;;;;;;20.35;100.00;98657.41;5030409;28;19925;-76
2023/08/06 00:24:36;;;;;;;;;;;;;;;19.80;100.00;98649.41;5031768;28;19935;-77
2023/08/06 00:27:02;;;;;;;;;;;;;;;19.18;100.00;98661.13;5031604;28;19921;-76
2023/08/06 00:29:27;;;;;;;;;;;;;;;19.02;100.00;98653.69;5031882;28;19927;-76
2023/08/06 00:31:52;;;;;;;;;;;;;;;18.80;100.00;98658.56;5031897;28;19968;-76
2023/08/06 00:34:18;;;;;;;;;;;;;;;18.74;100.00;98656.75;5031618;28;20419;-76
2023/08/06 00:36:43;;;;;;;;;;;;;;;18.70;100.00;98659.06;5013448;28;20437;-75
2023/08/06 00:39:08;;;;;;;;;;;;;;;18.63;100.00;98663.63;5013421;28;20368;-75
2023/08/06 00:41:34;;;;;;;;;;;;;;;18.62;100.00;98666.50;5013897;28;20324;-76
2023/08/06 00:43:59;;;;;;;;;;;;;;;18.63;100.00;98662.78;5031273;28;20377;-76
2023/08/06 00:46:26;;;;;;;;;;;;;;;18.69;100.00;98656.59;5031374;28;19925;-76
2023/08/06 00:48:52;;;;;;;;;;;;;;;18.77;100.00;98648.31;5013651;28;19921;-76
2023/08/06 00:51:17;;;;;;;;;;;;;;;18.96;100.00;98654.53;5031214;28;20332;-76
2023/08/06 00:53:43;;;;;;;;;;;;;;;19.06;100.00;98657.53;5030788;28;19987;-77
2023/08/06 00:56:09;;;;;;;;;;;;;;;19.15;100.00;98662.38;5029656;28;19928;-77
2023/08/06 00:58:35;;;;;;;;;;;;;;;19.29;100.00;98651.56;5028694;28;19925;-76
2023/08/06 01:01:00;;;;;;;;;;;;;;;19.40;100.00;98657.00;5011049;28;19972;-76
2023/08/06 01:03:27;;;;;;;;;;;;;;;19.37;100.00;98648.63;5011140;28;19925;-76
2023/08/06 01:05:52;;;;;;;;;;;;;;;19.42;100.00;98662.16;5030707;28;20443;-77
2023/08/06 01:08:20;;;;;;;;;;;;;;;19.47;100.00;98665.81;5030549;28;19921;-78
2023/08/06 01:10:54;;;;;;;;;;;;;;;19.51;100.00;98666.19;5027336;28;19931;-77
2023/08/06 01:13:19;;;;;;;;;;;;;;;19.30;100.00;98678.09;5013286;28;19925;-76
2023/08/06 01:15:49;;;;;;;;;;;;;;;19.11;100.00;98671.06;5031455;28;20339;-75
2023/08/06 01:18:15;;;;;;;;;;;;;;;18.85;100.00;98674.75;5005763;28;20432;-75
2023/08/06 01:20:40;;;;;;;;;;;;;;;18.72;100.00;98664.19;5030628;28;19941;-75
2023/08/06 01:23:06;;;;;;;;;;;;;;;18.67;100.00;98661.34;5028634;28;20027;-76
2023/08/06 01:25:37;;;;;;;;;;;;;;;18.69;100.00;98661.94;5064827;23;19935;-72
2023/08/06 01:28:09;;;;;;;;;;;;;;;18.83;100.00;98657.31;5079614;28;20483;-72
2023/08/06 01:30:38;;;;;;;;;;;;;;;18.88;100.00;98660.97;5081052;28;20395;-72
2023/08/06 01:33:08;;;;;;;;;;;;;;;18.89;100.00;98657.28;5079904;28;19927;-72
2023/08/06 01:35:34;;;;;;;;;;;;;;;18.98;100.00;98650.59;5081010;28;19920;-72
2023/08/06 01:38:01;;;;;;;;;;;;;;;18.99;100.00;98649.56;5080994;28;19920;-72
2023/08/06 01:40:28;;;;;;;;;;;;;;;19.05;100.00;98662.06;5079237;28;20026;-73
2023/08/06 01:42:53;;;;;;;;;;;;;;;19.00;100.00;98661.91;5080593;28;19920;-72
2023/08/06 01:45:18;;;;;;;;;;;;;;;19.08;100.00;98667.00;5077323;28;20389;-72
2023/08/06 01:47:44;;;;;;;;;;;;;;;19.03;100.00;98664.13;5081103;28;19920;-72
2023/08/06 01:50:09;;;;;;;;;;;;;;;19.00;100.00;98672.59;5079302;28;19933;-72
2023/08/06 01:52:34;;;;;;;;;;;;;;;18.93;100.00;98674.50;5081131;28;19921;-72
2023/08/06 01:55:00;;;;;;;;;;;;;;;18.89;100.00;98662.63;5080251;28;19927;-73
2023/08/06 01:57:25;;;;;;;;;;;;;;;18.78;100.00;98669.50;5078090;28;19963;-72
2023/08/06 01:59:51;;;;;;;;;;;;;;;18.74;100.00;98675.47;5063890;28;19935;-72
2023/08/06 02:02:16;;;;;;;;;;;;;;;18.66;100.00;98678.41;5077190;28;19928;-71
2023/08/06 02:04:42;;;;;;;;;;;;;;;18.68;100.00;98670.97;5082048;28;19915;-71
2023/08/06 02:07:07;;;;;;;;;;;;;;;18.40;100.00;98674.00;5079551;28;19965;-72
2023/08/06 02:09:32;;;;;;;;;;;;;;;18.57;100.00;98671.66;5079238;28;19978;-73
2023/08/06 02:11:58;;;;;;;;;;;;;;;18.68;100.00;98668.31;5079448;28;20291;-72
2023/08/06 02:14:23;;;;;;;;;;;;;;;18.65;100.00;98668.75;5077425;28;19925;-72
2023/08/06 02:16:49;;;;;;;;;;;;;;;18.77;100.00;98659.00;5078390;28;19916;-72
2023/08/06 02:19:15;;;;;;;;;;;;;;;18.83;100.00;98651.97;5078016;28;19920;-72
2023/08/06 02:21:40;;;;;;;;;;;;;;;18.88;100.00;98655.63;5085357;28;19920;-72
2023/08/06 02:24:05;;;;;;;;;;;;;;;18.90;100.00;98669.59;5082894;28;20003;-72
2023/08/06 02:26:30;;;;;;;;;;;;;;;18.97;100.00;98664.19;5082567;28;20026;-71
2023/08/06 02:28:56;;;;;;;;;;;;;;;18.93;100.00;98674.50;5084737;28;19947;-71
2023/08/06 02:31:21;;;;;;;;;;;;;;;18.91;100.00;98663.19;5082132;28;19928;-75
2023/08/06 02:33:46;;;;;;;;;;;;;;;18.80;100.00;98661.22;5086054;28;19920;-73
2023/08/06 02:36:12;;;;;;;;;;;;;;;18.70;100.00;98653.69;5081833;28;19916;-74
2023/08/06 02:38:37;;;;;;;;;;;;;;;18.68;100.00;98652.28;5079846;28;19966;-74
2023/08/06 02:41:03;;;;;;;;;;;;;;;18.59;100.00;98650.91;5078667;28;19921;-74
2023/08/06 02:43:29;;;;;;;;;;;;;;;18.60;100.00;98658.72;5076387;28;19917;-74
2023/08/06 02:45:58;;;;;;;;;;;;;;;18.63;100.00;98660.13;5076813;28;19921;-72
2023/08/06 02:48:23;;;;;;;;;;;;;;;18.69;100.00;98656.59;5097047;28;20030;-73
2023/08/06 02:50:48;;;;;;;;;;;;;;;18.63;100.00;98644.09;5080771;28;20008;-73
2023/08/06 02:53:14;;;;;;;;;;;;;;;18.64;100.00;98643.06;5083725;28;19999;-74
2023/08/06 02:55:44;;;;;;;;;;;;;;;18.63;100.00;98646.75;5080638;28;19968;-72
2023/08/06 02:58:11;;;;;;;;;;;;;;;18.55;100.00;98647.88;5071823;28;19994;-72
2023/08/06 03:00:42;;;;;;;;;;;;;;;18.49;100.00;98640.69;5083146;28;19920;-73
2023/08/06 03:03:08;;;;;;;;;;;;;;;18.45;100.00;98643.97;5097590;28;19920;-74
2023/08/06 03:05:41;;;;;;;;;;;;;;;18.36;100.00;98641.56;5067447;28;20432;-72
2023/08/06 03:08:06;;;;;;;;;;;;;;;18.32;100.00;98642.19;5080916;28;20011;-73
2023/08/06 03:10:34;;;;;;;;;;;;;;;18.27;100.00;98636.69;5081780;28;19921;-73
2023/08/06 03:13:02;;;;;;;;;;;;;;;18.26;100.00;98641.19;5081212;28;20411;-73
2023/08/06 03:15:28;;;;;;;;;;;;;;;18.35;100.00;98628.44;5080575;28;19920;-73
2023/08/06 03:17:55;;;;;;;;;;;;;;;18.39;100.00;98637.63;5082670;28;19974;-72
2023/08/06 03:20:20;;;;;;;;;;;;;;;18.41;100.00;98635.56;5062510;28;20415;-72
2023/08/06 03:22:46;;;;;;;;;;;;;;;18.41;100.00;98641.75;5083318;28;19920;-72
2023/08/06 03:25:11;;;;;;;;;;;;;;;18.47;100.00;98644.59;5080733;28;20303;-72
2023/08/06 03:27:37;;;;;;;;;;;;;;;18.53;100.00;98638.38;5081673;28;19920;-73
2023/08/06 03:30:02;;;;;;;;;;;;;;;18.53;100.00;98649.06;5080857;28;20334;-72
2023/08/06 03:32:28;;;;;;;;;;;;;;;18.60;100.00;98647.22;5063718;28;20321;-72
2023/08/06 03:34:54;;;;;;;;;;;;;;;18.64;100.00;98640.38;5081558;28;19973;-72
2023/08/06 03:37:21;;;;;;;;;;;;;;;18.64;100.00;98643.06;5078770;28;20083;-72
2023/08/06 03:39:47;;;;;;;;;;;;;;;18.54;100.00;98642.69;5099094;28;19920;-72
2023/08/06 03:42:12;;;;;;;;;;;;;;;18.47;100.00;98642.72;5080125;28;19927;-73
2023/08/06 03:44:37;;;;;;;;;;;;;;;18.41;100.00;98639.06;5082447;28;20032;-73
2023/08/06 03:47:03;;;;;;;;;;;;;;;18.32;100.00;98645.69;5080020;28;20389;-73
2023/08/06 03:49:28;;;;;;;;;;;;;;;18.32;100.00;98635.00;5079793;28;20417;-73
2023/08/06 03:51:54;;;;;;;;;;;;;;;18.36;100.00;98636.22;5064840;28;19916;-73
2023/08/06 03:54:19;;;;;;;;;;;;;;;18.34;100.00;98640.97;5079735;28;20365;-73
2023/08/06 03:56:45;;;;;;;;;;;;;;;18.29;100.00;98639.97;5075543;28;19920;-72
2023/08/06 03:59:10;;;;;;;;;;;;;;;18.23;100.00;98638.97;5082856;28;20017;-73
2023/08/06 04:01:36;;;;;;;;;;;;;;;18.13;100.00;98640.47;5079457;28;19920;-73
2023/08/06 04:04:02;;;;;;;;;;;;;;;18.00;100.00;98647.50;5079664;28;20356;-73
2023/08/06 04:06:27;;;;;;;;;;;;;;;17.99;100.00;98647.72;5082677;28;20392;-73
2023/08/06 04:08:52;;;;;;;;;;;;;;;17.79;100.00;98655.00;5080600;28;20336;-73
2023/08/06 04:11:18;;;;;;;;;;;;;;;17.62;100.00;98646.59;5083214;28;20314;-73
2023/08/06 04:13:44;;;;;;;;;;;;;;;17.62;100.00;98643.13;5080361;28;19920;-71
2023/08/06 04:16:09;;;;;;;;;;;;;;;17.56;100.00;98648.22;5082199;28;19916;-72
2023/08/06 04:18:35;;;;;;;;;;;;;;;17.56;100.00;98648.22;5071391;28;19977;-72
2023/08/06 04:21:01;;;;;;;;;;;;;;;17.64;100.00;98651.72;5081226;28;19920;-73
2023/08/06 04:23:27;;;;;;;;;;;;;;;17.32;100.00;98653.44;5082443;28;20380;-73
2023/08/06 04:25:57;;;;;;;;;;;;;;;17.32;100.00;98643.56;5062368;28;19927;-73
2023/08/06 04:28:23;;;;;;;;;;;;;;;17.34;100.00;98646.84;5078550;28;19924;-73
2023/08/06 04:30:48;;;;;;;;;;;;;;;17.45;100.00;98648.88;5083324;28;19965;-73
2023/08/06 04:33:14;;;;;;;;;;;;;;;17.51;100.00;98650.72;5079612;28;19943;-73
2023/08/06 04:35:39;;;;;;;;;;;;;;;17.64;100.00;98659.75;5080387;28;20340;-73
2023/08/06 04:38:04;;;;;;;;;;;;;;;17.77;100.00;98651.69;5095725;28;19920;-73
2023/08/06 04:40:30;;;;;;;;;;;;;;;17.84;100.00;98650.66;5077816;28;20334;-73
2023/08/06 04:42:55;;;;;;;;;;;;;;;17.88;100.00;98653.72;5097419;28;19927;-73
2023/08/06 04:45:20;;;;;;;;;;;;;;;17.90;100.00;98649.00;5077512;28;19947;-72
2023/08/06 04:47:46;;;;;;;;;;;;;;;17.92;100.00;98652.25;5082376;28;20010;-72
2023/08/06 04:50:11;;;;;;;;;;;;;;;17.95;100.00;98659.84;5079486;28;20327;-71
2023/08/06 04:52:37;;;;;;;;;;;;;;;17.97;100.00;98653.25;5081651;28;19920;-72
2023/08/06 04:55:02;;;;;;;;;;;;;;;17.95;100.00;98662.53;5080585;28;19924;-72
2023/08/06 04:57:28;;;;;;;;;;;;;;;17.93;100.00;98652.03;5080312;28;19963;-72
2023/08/06 04:59:53;;;;;;;;;;;;;;;17.79;100.00;98665.66;5082354;28;19924;-72
2023/08/06 05:02:18;;;;;;;;;;;;;;;17.81;100.00;98659.06;5078912;28;20487;-72
2023/08/06 05:04:44;;;;;;;;;;;;;;;17.72;100.00;98651.53;5082202;28;19986;-72
2023/08/06 05:07:10;;;;;;;;;;;;;;;17.48;100.00;98664.47;5079513;28;20006;-73
2023/08/06 05:09:35;;;;;;;;;;;;;;;17.63;100.00;98658.09;5080925;28;20296;-72
2023/08/06 05:12:01;;;;;;;;;;;;;;;17.35;100.00;98663.66;5081124;28;19920;-74
2023/08/06 05:14:26;;;;;;;;;;;;;;;17.37;100.00;98680.28;5079772;28;19947;-73
2023/08/06 05:16:51;;;;;;;;;;;;;;;17.41;100.00;98682.34;5080824;28;20711;-73
2023/08/06 05:19:17;;;;;;;;;;;;;;;17.49;100.00;98690.13;5077829;28;20300;-72
2023/08/06 05:21:42;;;;;;;;;;;;;;;17.55;100.00;98686.59;5080267;28;20284;-73
2023/08/06 05:24:07;;;;;;;;;;;;;;;17.68;100.00;98682.28;5079443;28;19919;-73
2023/08/06 05:26:33;;;;;;;;;;;;;;;17.80;100.00;98688.63;5080434;28;19927;-73
2023/08/06 05:28:58;;;;;;;;;;;;;;;17.79;100.00;98692.34;5081410;28;19966;-73
2023/08/06 05:31:23;;;;;;;;;;;;;;;17.88;100.00;98696.41;5079020;28;19972;-73
2023/08/06 05:33:48;;;;;;;;;;;;;;;17.92;100.00;98702.97;5082361;28;19974;-72
2023/08/06 05:36:14;;;;;;;;;;;;;;;17.93;100.00;98696.59;5078422;28;19920;-72
2023/08/06 05:38:39;;;;;;;;;;;;;;;17.98;100.00;98691.44;5081636;28;20274;-73
2023/08/06 05:41:04;;;;;;;;;;;;;;;18.00;100.00;98692.88;5079828;28;19920;-73
2023/08/06 05:43:30;;;;;;;;;;;;;;;18.06;100.00;98688.56;5078801;28;19956;-72
2023/08/06 05:45:55;;;;;;;;;;;;;;;18.14;100.00;98696.34;5081919;28;19964;-73
2023/08/06 05:48:22;;;;;;;;;;;;;;;18.24;100.00;98687.84;5078572;28;19956;-74
2023/08/06 05:50:47;;;;;;;;;;;;;;;18.33;100.00;98695.41;5082396;28;19920;-73
2023/08/06 05:53:13;;;;;;;;;;;;;;;18.32;100.00;98695.59;5082551;28;19920;-73
2023/08/06 05:55:38;;;;;;;;;;;;;;;18.28;100.00;98687.22;5084926;28;19973;-74
2023/08/06 05:58:04;;;;;;;;;;;;;;;18.24;100.00;98696.69;5083951;28;19969;-74
2023/08/06 06:00:29;;;;;;;;;;;;;;;18.25;100.00;98682.31;5082533;28;20009;-73
2023/08/06 06:02:55;;;;;;;;;;;;;;;18.24;100.00;98680.66;5085480;28;19927;-73
2023/08/06 06:05:20;;;;;;;;;;;;;;;18.20;100.00;98689.31;5082134;28;19920;-73
2023/08/06 06:07:45;;;;;;;;;;;;;;;18.21;100.00;98690.94;5078192;28;19970;-73
2023/08/06 06:10:11;;;;;;;;;;;;;;;18.25;100.00;98698.34;5084635;28;19927;-72
2023/08/06 06:12:38;;;;;;;;;;;;;;;18.35;100.00;98693.34;5083754;28;19920;-73
2023/08/06 06:15:03;;;;;;;;;;;;;;;18.50;100.00;98694.91;5083841;28;19927;-73
2023/08/06 06:17:29;;;;;;;;;;;;;;;18.58;100.00;98700.84;5084730;28;19920;-73
2023/08/06 06:19:54;;;;;;;;;;;;;;;18.68;100.00;98700.38;5082802;28;19927;-73
2023/08/06 06:22:19;;;;;;;;;;;;;;;18.74;100.00;98704.84;5085170;28;20413;-73
2023/08/06 06:24:45;;;;;;;;;;;;;;;18.81;100.00;98697.63;5081903;28;19968;-73
2023/08/06 06:27:10;;;;;;;;;;;;;;;18.86;100.00;98688.94;5082239;28;19956;-73
2023/08/06 06:29:35;;;;;;;;;;;;;;;18.91;100.00;98705.97;5084336;28;20386;-73
2023/08/06 06:32:01;;;;;;;;;;;;;;;18.96;100.00;98695.47;5082669;28;19969;-73
2023/08/06 06:34:26;;;;;;;;;;;;;;;19.00;100.00;98693.16;5082508;28;19931;-72
2023/08/06 06:36:51;;;;;;;;;;;;;;;19.11;100.00;98693.28;5085148;28;19931;-73
2023/08/06 06:39:17;;;;;;;;;;;;;;;19.19;100.00;98694.88;5081276;28;20300;-73
2023/08/06 06:41:44;;;;;;;;;;;;;;;19.29;100.00;98695.19;5084618;28;20291;-73
2023/08/06 06:44:19;;;;;;;;;;;;;;;19.41;100.00;98697.97;5080288;28;19917;-73
2023/08/06 06:46:45;;;;;;;;;;;;;;;19.51;100.00;98698.31;5085214;28;19920;-73
2023/08/06 06:49:10;;;;;;;;;;;;;;;19.63;100.00;98700.03;5082109;28;19977;-72
2023/08/06 06:51:35;;;;;;;;;;;;;;;19.78;100.00;98702.38;5083833;28;19920;-72
2023/08/06 06:54:00;;;;;;;;;;;;;;;19.90;100.00;98703.25;5081785;28;20022;-74
2023/08/06 06:56:26;;;;;;;;;;;;;;;20.01;100.00;98705.19;5081863;28;19989;-73
2023/08/06 06:58:51;;;;;;;;;;;;;;;20.16;100.00;98701.28;5083530;28;19970;-73
2023/08/06 07:01:17;;;;;;;;;;;;;;;20.27;100.00;98704.03;5081381;28;19920;-73
2023/08/06 07:03:42;;;;;;;;;;;;;;;20.41;100.00;98704.72;5083577;28;20006;-73
2023/08/06 07:06:07;;;;;;;;;;;;;;;20.56;100.00;98702.44;5082306;28;19926;-73
2023/08/06 07:08:32;;;;;;;;;;;;;;;20.69;100.00;98702.25;5082887;28;20302;-73
2023/08/06 07:11:02;;;;;;;;;;;;;;;20.84;98.44;98700.00;5083322;28;20007;-73
2023/08/06 07:13:27;;;;;;;;;;;;;;;20.98;100.00;98699.75;5082094;28;19928;-73
2023/08/06 07:15:53;;;;;;;;;;;;;;;21.09;99.03;98697.09;5100101;28;19923;-73
2023/08/06 07:18:19;;;;;;;;;;;;;;;21.19;97.82;98696.59;5080827;28;20324;-73
2023/08/06 07:20:48;;;;;;;;;;;;;;;21.31;89.76;98694.72;5084600;28;20348;-73
2023/08/06 07:23:13;;;;;;;;;;;;;;;21.43;88.93;98697.41;5081227;28;20307;-73
2023/08/06 07:25:38;;;;;;;;;;;;;;;21.56;86.62;98695.28;5082678;28;19920;-73
2023/08/06 07:28:04;;;;;;;;;;;;;;;21.71;83.62;98694.84;5082278;28;19920;-73
2023/08/06 07:30:29;;;;;;;;;;;;;;;21.83;85.38;98692.13;5082029;28;20011;-72
2023/08/06 07:32:54;;;;;;;;;;;;;;;21.94;84.60;98699.34;5083811;28;19927;-73
2023/08/06 07:35:20;;;;;;;;;;;;;;;22.05;81.60;98696.66;5080532;28;20015;-72
2023/08/06 07:37:45;;;;;;;;;;;;;;;22.14;81.70;98699.81;5084173;28;19920;-73
2023/08/06 07:40:10;;;;;;;;;;;;;;;22.21;78.45;98700.47;5080471;28;19987;-74
2023/08/06 07:42:36;;;;;;;;;;;;;;;22.31;76.35;98692.63;5082593;28;19920;-73
2023/08/06 07:45:01;;;;;;;;;;;;;;;22.38;75.07;98701.34;5082401;28;19924;-73
2023/08/06 07:47:27;;;;;;;;;;;;;;;22.49;72.07;98702.38;5081433;28;19920;-73
2023/08/06 07:49:52;;;;;;;;;;;;;;;22.62;66.79;98703.97;5083954;28;20006;-73
2023/08/06 07:52:17;;;;;;;;;;;;;;;22.72;65.25;98701.50;5080272;28;19936;-73
2023/08/06 07:54:43;;;;;;;;;;;;;;;22.84;61.82;98691.50;5083536;28;19921;-73
2023/08/06 07:57:08;;;;;;;;;;;;;;;22.97;57.69;98699.25;5080543;28;20430;-74
2023/08/06 07:59:33;;;;;;;;;;;;;;;23.09;57.35;98693.81;5082025;28;20428;-73
2023/08/06 08:02:00;;;;;;;;;;;;;;;23.21;56.26;98694.50;5082551;28;19920;-73
2023/08/06 08:04:25;;;;;;;;;;;;;;;23.31;55.69;98694.69;5080626;28;19920;-73
2023/08/06 08:06:50;;;;;;;;;;;;;;;23.39;55.27;98690.75;5083721;28;20628;-72
2023/08/06 08:09:15;;;;;;;;;;;;;;;23.44;53.59;98696.25;5075788;28;20023;-71
2023/08/06 08:11:41;;;;;;;;;;;;;;;23.50;52.99;98687.22;5082380;28;20372;-71
2023/08/06 08:14:07;;;;;;;;;;;;;;;23.64;49.59;98694.66;5080562;28;19920;-73
2023/08/06 08:16:32;;;;;;;;;;;;;;;23.74;50.15;98693.19;5081594;28;19921;-74
2023/08/06 08:18:58;;;;;;;;;;;;;;;23.82;47.35;98690.88;5082304;28;20012;-72
2023/08/06 08:21:26;;;;;;;;;;;;;;;23.93;46.97;98698.03;5080082;28;20015;-71
2023/08/06 08:23:51;;;;;;;;;;;;;;;24.05;46.71;98685.25;5083315;28;19920;-72
2023/08/06 08:26:17;;;;;;;;;;;;;;;24.17;45.75;98695.09;5078845;28;20024;-72
2023/08/06 08:28:42;;;;;;;;;;;;;;;24.26;46.03;98696.31;5082395;28;20398;-73
2023/08/06 08:31:08;;;;;;;;;;;;;;;24.30;45.90;98697.44;5080445;28;20364;-75
2023/08/06 08:33:33;;;;;;;;;;;;;;;24.35;47.16;98689.41;5081344;28;19921;-72
2023/08/06 08:35:59;;;;;;;;;;;;;;;24.41;44.84;98683.81;5082018;28;19927;-72
2023/08/06 08:38:24;;;;;;;;;;;;;;;24.55;39.82;98684.25;5078302;28;19924;-72
2023/08/06 08:40:51;;;;;;;;;;;;;;;24.67;38.28;98682.22;5082722;28;19963;-72
2023/08/06 08:43:17;;;;;;;;;;;;;;;24.73;38.87;98681.19;5078910;28;20014;-72
2023/08/06 08:45:44;;;;;;;;;;;;;;;24.80;40.43;98676.38;5082360;28;19973;-72
2023/08/06 08:48:14;;;;;;;;;;;;;;;25.00;32.87;98685.75;5079844;28;19920;-71
2023/08/06 08:50:39;;;;;;;;;;;;;;;25.14;27.71;98686.97;5081840;28;19920;-71
2023/08/06 08:53:05;;;;;;;;;;;;;;;25.31;24.83;98687.66;5080239;28;20260;-73
2023/08/06 08:55:31;;;;;;;;;;;;;;;25.45;24.53;98682.59;5080253;28;19971;-73
2023/08/06 08:57:57;;;;;;;;;;;;;;;25.55;25.04;98683.50;5081812;28;19924;-73
2023/08/06 09:00:22;;;;;;;;;;;;;;;25.71;24.36;98679.03;5078746;28;19942;-72
2023/08/06 09:02:47;;;;;;;;;;;;;;;25.77;24.51;98669.06;5082626;28;19958;-72
2023/08/06 09:05:13;;;;;;;;;;;;;;;25.76;25.61;98662.00;5079127;28;19955;-73
2023/08/06 09:07:42;;;;;;;;;;;;;;;25.75;25.34;98657.69;5081610;28;20308;-72
2023/08/06 09:10:10;;;;;;;;;;;;;;;25.77;25.55;98660.94;5079930;28;19951;-72
2023/08/06 09:12:35;;;;;;;;;;;;;;;25.78;24.72;98654.47;5079516;28;19920;-72
2023/08/06 09:15:03;;;;;;;;;;;;;;;25.90;23.30;98664.00;5080402;28;19989;-72
2023/08/06 09:17:29;;;;;;;;;;;;;;;26.01;23.79;98659.44;5079752;28;19916;-73
2023/08/06 09:19:54;;;;;;;;;;;;;;;26.09;23.56;98675.16;5081683;28;20402;-72
2023/08/06 09:22:19;;;;;;;;;;;;;;;26.25;22.94;98660.63;5078577;28;20407;-72
2023/08/06 09:24:45;;;;;;;;;;;;;;;26.32;22.22;98654.97;5082003;28;19928;-72
2023/08/06 09:27:12;;;;;;;;;;;;;;;26.31;22.22;98666.88;5078583;28;19928;-72
2023/08/06 09:29:40;;;;;;;;;;;;;;;26.39;22.39;98661.75;5080982;28;20494;-72
2023/08/06 09:32:05;;;;;;;;;;;;;;;26.50;22.94;98673.44;5079728;28;20032;-72
2023/08/06 09:34:30;;;;;;;;;;;;;;;26.54;21.63;98674.50;5080006;28;20396;-72
2023/08/06 09:36:56;;;;;;;;;;;;;;;26.56;20.70;98666.13;5081451;28;19924;-72
2023/08/06 09:39:26;;;;;;;;;;;;;;;26.61;22.33;98663.44;5078446;28;19929;-72
2023/08/06 09:41:55;;;;;;;;;;;;;;;26.68;22.42;98658.59;5081999;28;19959;-72
2023/08/06 09:44:22;;;;;;;;;;;;;;;26.69;21.64;98654.78;5078351;28;19959;-72
2023/08/06 09:46:51;;;;;;;;;;;;;;;26.66;22.44;98658.03;5074396;28;19927;-71
2023/08/06 09:49:20;;;;;;;;;;;;;;;26.66;22.02;98649.91;5056112;28;19974;-72
2023/08/06 09:51:51;;;;;;;;;;;;;;;26.82;21.40;98654.25;5082055;28;19921;-71
2023/08/06 09:54:18;;;;;;;;;;;;;;;26.81;21.06;98655.31;5073874;28;19956;-71
2023/08/06 09:56:44;;;;;;;;;;;;;;;26.77;22.91;98646.13;5081489;28;19932;-72
2023/08/06 09:59:11;;;;;;;;;;;;;;;26.80;20.85;98648.31;5077806;28;19966;-72
2023/08/06 10:01:37;;;;;;;;;;;;;;;26.91;19.95;98647.25;5079541;28;20257;-72
2023/08/06 10:04:03;;;;;;;;;;;;;;;26.88;19.67;98648.59;5080841;28;20296;-73
2023/08/06 10:06:29;;;;;;;;;;;;;;;26.96;20.35;98651.84;5078665;28;19921;-72
2023/08/06 10:08:54;;;;;;;;;;;;;;;27.09;19.89;98654.84;5080162;28;20291;-72
2023/08/06 10:11:21;;;;;;;;;;;;;;;27.18;20.50;98657.81;5082270;28;19931;-72
2023/08/06 10:13:48;;;;;;;;;;;;;;;27.27;19.66;98645.34;5078532;28;19920;-73
2023/08/06 10:16:14;;;;;;;;;;;;;;;27.26;20.01;98647.25;5076500;28;19920;-72
2023/08/06 10:18:40;;;;;;;;;;;;;;;27.45;19.27;98657.50;5082000;28;20329;-73
2023/08/06 10:21:09;;;;;;;;;;;;;;;27.42;19.10;98660.75;5079378;28;20502;-72
2023/08/06 10:23:37;;;;;;;;;;;;;;;27.48;19.04;98654.25;5062595;28;19920;-72
2023/08/06 10:26:02;;;;;;;;;;;;;;;27.57;18.27;98656.13;5078464;28;19924;-71
2023/08/06 10:28:37;;;;;;;;;;;;;;;27.52;19.04;98652.63;5081493;28;20398;-71
2023/08/06 10:31:06;;;;;;;;;;;;;;;27.58;18.76;98656.94;5079141;28;19920;-72
2023/08/06 10:33:47;;;;;;;;;;;;;;;27.56;19.92;98648.31;5077238;28;20360;-71
2023/08/06 10:36:12;;;;;;;;;;;;;;;27.54;20.24;98645.03;5078466;28;19920;-71
2023/08/06 10:38:45;;;;;;;;;;;;;;;27.54;20.33;98645.03;5081035;28;20411;-73
2023/08/06 10:41:15;;;;;;;;;;;;;;;27.53;19.65;98643.41;5083696;28;19935;-72
2023/08/06 10:43:43;;;;;;;;;;;;;;;27.73;18.92;98643.38;5085447;28;20014;-72
2023/08/06 10:46:20;;;;;;;;;;;;;;;27.80;19.34;98638.47;5082389;28;20384;-73
2023/08/06 10:48:45;;;;;;;;;;;;;;;27.81;18.74;98644.69;5085488;28;19925;-72
2023/08/06 10:51:12;;;;;;;;;;;;;;;27.87;18.37;98638.16;5082713;28;20386;-72
2023/08/06 10:53:38;;;;;;;;;;;;;;;27.87;18.56;98652.53;5081436;28;20016;-72
2023/08/06 10:56:14;;;;;;;;;;;;;;;27.95;18.81;98651.97;5081786;28;20332;-72
2023/08/06 10:58:39;;;;;;;;;;;;;;;27.91;19.27;98645.47;5082905;28;20387;-72
2023/08/06 11:01:04;;;;;;;;;;;;;;;27.90;19.56;98638.44;5082880;28;19920;-73
2023/08/06 11:03:31;;;;;;;;;;;;;;;27.97;19.97;98644.38;5082588;28;19927;-74
2023/08/06 11:05:56;;;;;;;;;;;;;;;27.99;19.34;98642.19;5083133;28;19928;-73
2023/08/06 11:08:29;;;;;;;;;;;;;;;28.04;19.47;98649.47;5084267;28;20461;-73
2023/08/06 11:10:54;;;;;;;;;;;;;;;28.08;19.72;98639.72;5079433;28;19929;-73
2023/08/06 11:13:20;;;;;;;;;;;;;;;28.14;19.29;98624.25;5078458;28;19978;-73
2023/08/06 11:15:46;;;;;;;;;;;;;;;28.10;19.27;98627.47;5084807;28;20019;-73
2023/08/06 11:18:11;;;;;;;;;;;;;;;28.16;19.50;98625.56;5081292;28;19928;-73
2023/08/06 11:20:36;;;;;;;;;;;;;;;28.32;18.99;98634.47;5084373;28;20283;-72
2023/08/06 11:23:02;;;;;;;;;;;;;;;28.31;18.93;98632.84;5082713;28;19931;-74
2023/08/06 11:25:28;;;;;;;;;;;;;;;28.34;18.92;98629.56;5079020;28;19951;-73
2023/08/06 11:27:53;;;;;;;;;;;;;;;28.36;19.22;98627.38;5083350;28;19967;-72
2023/08/06 11:30:18;;;;;;;;;;;;;;;28.41;19.30;98622.72;5080493;28;20533;-73
2023/08/06 11:32:47;;;;;;;;;;;;;;;28.41;18.83;98619.19;5083094;28;19927;-73
2023/08/06 11:35:13;;;;;;;;;;;;;;;28.59;18.97;98623.97;5085978;28;19924;-74
2023/08/06 11:37:43;;;;;;;;;;;;;;;28.52;19.27;98623.47;5081857;28;20284;-73
2023/08/06 11:40:10;;;;;;;;;;;;;;;28.59;19.05;98618.53;5083081;28;19921;-73
2023/08/06 11:42:36;;;;;;;;;;;;;;;28.62;18.37;98612.56;5083618;28;19948;-74
2023/08/06 11:45:02;;;;;;;;;;;;;;;28.61;18.68;98615.56;5081611;28;19964;-73
2023/08/06 11:47:28;;;;;;;;;;;;;;;28.63;17.72;98616.88;5082709;28;20012;-74
2023/08/06 11:49:54;;;;;;;;;;;;;;;28.63;18.46;98608.72;5079775;28;20014;-73
2023/08/06 11:52:20;;;;;;;;;;;;;;;28.63;18.49;98613.38;5062045;28;19943;-74
2023/08/06 11:54:47;;;;;;;;;;;;;;;28.73;18.32;98616.84;5083051;28;20023;-70
2023/08/06 11:57:12;;;;;;;;;;;;;;;28.76;17.77;98613.56;5080334;28;19967;-72
2023/08/06 11:59:38;;;;;;;;;;;;;;;28.77;18.42;98626.03;5082676;28;19971;-72
2023/08/06 12:02:07;;;;;;;;;;;;;;;28.82;18.05;98627.91;5079858;28;19920;-73
2023/08/06 12:04:51;;;;;;;;;;;;;;;28.89;17.61;98612.91;5080727;28;20348;-73
2023/08/06 12:07:16;;;;;;;;;;;;;;;28.99;18.06;98613.91;5078055;28;19920;-73
2023/08/06 12:09:42;;;;;;;;;;;;;;;29.10;17.42;98607.31;5079870;28;20275;-73
2023/08/06 12:12:07;;;;;;;;;;;;;;;29.17;17.53;98603.13;5080763;28;19921;-73
2023/08/06 12:14:32;;;;;;;;;;;;;;;29.37;16.60;98596.72;5084714;28;19961;-74
2023/08/06 12:16:58;;;;;;;;;;;;;;;29.55;17.16;98606.88;5080962;28;19921;-72
2023/08/06 12:19:23;;;;;;;;;;;;;;;29.74;16.78;98595.22;5083313;28;19973;-73
2023/08/06 12:21:48;;;;;;;;;;;;;;;29.73;16.46;98601.78;5083565;28;19924;-73
2023/08/06 12:24:14;;;;;;;;;;;;;;;29.80;16.50;98600.31;5077575;28;20412;-72
2023/08/06 12:26:39;;;;;;;;;;;;;;;29.95;16.62;98602.06;5082169;28;19920;-74
2023/08/06 12:29:04;;;;;;;;;;;;;;;30.06;15.93;98598.09;5079471;28;20050;-74
2023/08/06 12:31:29;;;;;;;;;;;;;;;30.16;16.25;98591.72;5079654;28;19974;-73
2023/08/06 12:33:55;;;;;;;;;;;;;;;30.38;16.03;98600.09;5085011;28;19927;-74